Portada
METAR-TAF:

METAR-TAF

Aeropuertos :

Isla de Capri, Italia

latitud: 40-33N, longitud: 014-12E, altitud: 160 m

Observación

El informe se hizo hace 2 horas y 31 minutos, a las 21:55 UTC
Viento 6 kt del oeste-suroeste
Temperatura 13°C
Humedad 88%
Presión 1017 hPa
Visibilidad 10 km o más
Nubes dispersas a una altura de 2000 ft

METAR: LIQC 252155Z 25006KT 9999 SCT020 13/11 Q1017 RMK SCT QUK / QUL / VIS MAR 15 KM VIS MIN 9999

Hora: 01:26 (00:26 UTC)


TAF: falta

Observaciones y pronósticos meteorológicos de más de 4000 aeropuertos (mensajes METAR y TAF).

Los puntos amarillos y rojos representan las estaciones disponibles.

Ponga el ratón en el punto deseado para ver el nombre de la estación.

Haga clic para ver las observaciones y los pronósticos meteorológicos.

Para cambiar el mapa : haga clic en los botones verdes con una cruz de color negro para hacer un zoom, en el botón verde con un guión para alejar o en las flechas verdes para mapas adyacentes.


METAR-TAF: